Flight Track Log - Related Links

Times and Time Zones

All times are in EDT time to prevent confusion due to time zone crossing. See the UPS1125 flight status page for this flight to view local times or setup timezone preferences in your user account.

Time Position Orientation Groundspeed Altitude Reporting Facility
EDT Latitude Longitude Course Direction KTS MPH feet Rate Location/Type
Thu 10:33:49 PM 40.6420 -73.7700 180° South 124 143  Level FlightAware ADS-B
Thu 10:34:09 PM 40.6300 -73.7800 212° Southwest 150 173 700 2,500 Climbing FlightAware ADS-B
Thu 10:34:25 PM 40.6200 -73.7870 208° Southwest 145 167 1,500 1,818 Climbing FlightAware ADS-B
Thu 10:34:42 PM 40.6100 -73.7940 208° Southwest 162 186 1,700 714 Climbing FlightAware ADS-B
Thu 10:35:07 PM 40.5920 -73.8090 212° Southwest 192 221 2,000 973 Climbing FlightAware ADS-B
Thu 10:35:19 PM 40.5820 -73.8160 208° Southwest 210 242 2,300 1,500 Climbing FlightAware ADS-B
Thu 10:35:27 PM 40.5750 -73.8170 186° South 221 254 2,500 3,231 Climbing FlightAware ADS-B
Thu 10:35:58 PM 40.5470 -73.7984 153° Southeast 224 258 4,400 3,500 Climbing FlightAware ADS-B
Thu 10:36:03 PM 40.5441 -73.7931 126° Southeast 236 272 4,600 3,000 Climbing FlightAware ADS-B
Thu 10:36:34 PM 40.5312 -73.7499 111° Southeast 249 287 6,200 3,000 Climbing FlightAware ADS-B
Thu 10:36:39 PM 40.5315 -73.7436 86° East 248 285 6,400 2,250 Climbing FlightAware ADS-B
Thu 10:36:42 PM 40.5320 -73.7391 82° East 248 285 6,500 1,714 Climbing FlightAware ADS-B
Thu 10:36:46 PM 40.5333 -73.7335 73° East 247 284 6,600 1,500 Climbing FlightAware ADS-B
Thu 10:36:54 PM 40.5377 -73.7229 61° Northeast 244 281 6,800 1,636 Climbing FlightAware ADS-B
Thu 10:36:57 PM 40.5398 -73.7194 52° Northeast 246 283 6,900 2,500 Climbing FlightAware ADS-B
Thu 10:37:06 PM 40.5468 -73.7086 50° Northeast 253 291 7,300 2,824 Climbing FlightAware ADS-B
Thu 10:37:14 PM 40.5532 -73.6997 47° Northeast 255 293 7,700 3,250 Climbing FlightAware ADS-B
Thu 10:37:30 PM 40.5660 -73.6828 45° Northeast 258 297 8,600 3,400 Climbing FlightAware ADS-B
Thu 10:37:44 PM 40.5781 -73.6667 45° Northeast 262 302 9,400 3,333 Climbing FlightAware ADS-B
Thu 10:38:06 PM 40.5970 -73.6410 46° Northeast 270 311 10,600 3,257 Climbing FlightAware ADS-B
Thu 10:38:19 PM 40.6081 -73.6246 48° Northeast 276 318 11,300 3,360 Climbing FlightAware ADS-B
Thu 10:38:56 PM 40.6411 -73.5785 47° Northeast 281 323 13,400 3,319 Climbing FlightAware ADS-B
Thu 10:39:06 PM 40.6518 -73.5699 31° Northeast 283 326 13,900 2,880 Climbing FlightAware ADS-B
Thu 10:39:21 PM 40.6702 -73.5643 13° North 281 323 14,600 2,769 Climbing FlightAware ADS-B
Thu 10:39:32 PM 40.6848 -73.5639 North 284 327 15,100 2,512 Climbing FlightAware ADS-B
Thu 10:40:04 PM 40.7277 -73.5646 359° North 290 334 16,400 1,875 Climbing FlightAware ADS-B
Thu 10:40:20 PM 40.7491 -73.5646 360° North 304 350 16,600 667 Climbing FlightAware ADS-B
Thu 10:40:40 PM 40.7790 -73.5646 360° North 326 375 16,800 316 Climbing FlightAware ADS-B
Thu 10:40:58 PM 40.8067 -73.5665 357° North 334 384 16,800  Level FlightAware ADS-B
Thu 10:41:07 PM 40.8194 -73.5708 346° North 331 381 16,800  Level FlightAware ADS-B
Thu 10:41:15 PM 40.8319 -73.5776 338° Northwest 339 390 16,800 133 Level FlightAware ADS-B
Thu 10:41:52 PM 40.8880 -73.6152 333° Northwest 401 461 16,900 609 Climbing FlightAware ADS-B
Thu 10:42:24 PM 40.9425 -73.6522 333° Northwest 422 486 17,500 1,065 Climbing FlightAware ADS-B
Thu 10:42:54 PM 40.9941 -73.6908 331° Northwest 423 487 18,000 1,269 Climbing FlightAware ADS-B
Thu 10:43:16 PM 41.0300 -73.7194 329° Northwest 425 489 18,600 1,455 Climbing FlightAware ADS-B
Thu 10:43:27 PM 41.0470 -73.7369 322° Northwest 426 490 18,800 1,043 Climbing FlightAware ADS-B
Thu 10:43:39 PM 41.0625 -73.7596 312° West 425 489 19,000 1,091 Climbing FlightAware ADS-B
Thu 10:43:49 PM 41.0726 -73.7829 300° West 424 488 19,200 1,125 Climbing FlightAware ADS-B
Thu 10:43:55 PM 41.0768 -73.7969 292° West 422 486 19,300 923 Climbing FlightAware ADS-B
Thu 10:44:02 PM 41.0803 -73.8142 285° West 421 484 19,400 1,059 Climbing FlightAware ADS-B
Thu 10:44:12 PM 41.0825 -73.8402 276° West 419 482 19,600 857 Climbing FlightAware ADS-B
Thu 10:44:16 PM 41.0825 -73.8505 270° West 419 482 19,600 857 Level FlightAware ADS-B
Thu 10:44:26 PM 41.0803 -73.8770 264° West 420 483 19,800 1,091 Climbing FlightAware ADS-B
Thu 10:44:27 PM 41.0802 -73.8780 262° West 420 483 19,800 1,161 Level FlightAware ADS-B
Thu 10:44:57 PM 41.0709 -73.9537 261° West 422 486 20,400 1,161 Climbing FlightAware ADS-B
Thu 10:44:58 PM 41.0704 -73.9578 261° West 423 487 20,400 1,200 Level FlightAware ADS-B
Thu 10:45:17 PM 41.0659 -74.0050 263° West 423 487 20,800 1,548 Climbing FlightAware ADS-B
Thu 10:45:29 PM 41.0632 -74.0375 264° West 425 489 21,200 1,610 Climbing FlightAware ADS-B
Thu 10:45:58 PM 41.0564 -74.1126 263° West 431 496 21,900 1,548 Climbing FlightAware ADS-B
Thu 10:46:00 PM 41.0559 -74.1184 263° West 438 504 22,000 2,063 Climbing FlightAware ADS-B
Thu 10:46:30 PM 41.0480 -74.1983 263° West 441 507 23,000 2,063 Climbing FlightAware ADS-B
Thu 10:46:32 PM 41.0473 -74.2047 262° West 439 505 23,100 1,818 Climbing FlightAware ADS-B
Thu 10:47:03 PM 41.0378 -74.2881 261° West 447 514 24,000 1,636 Climbing FlightAware ADS-B
Thu 10:47:05 PM 41.0373 -74.2924 261° West 447 514 24,000 1,548 Level FlightAware ADS-B
Thu 10:47:34 PM 41.0289 -74.3708 262° West 453 521 24,800 1,034 Climbing FlightAware ADS-B
Thu 10:48:03 PM 41.0208 -74.4515 262° West 449 517 25,000 400 Climbing FlightAware ADS-B
Thu 10:48:04 PM 41.0205 -74.4554 264° West 463 533 25,000  Level FlightAware ADS-B
Thu 10:48:34 PM 41.0126 -74.5397 263° West 461 531 25,000 97 Level FlightAware ADS-B
Thu 10:49:06 PM 41.0038 -74.6276 262° West 455 524 25,100  Climbing FlightAware ADS-B
Thu 10:49:37 PM 40.9952 -74.7132 262° West 461 531 25,000  Descending FlightAware ADS-B
Thu 10:50:07 PM 40.9866 -74.7968 262° West 456 525 25,100 600 Climbing FlightAware ADS-B
Thu 10:50:37 PM 40.9779 -74.8803 262° West 458 527 25,600 1,149 Climbing FlightAware ADS-B
Thu 10:50:54 PM 40.9724 -74.9264 261° West 460 529 26,000 1,385 Climbing FlightAware ADS-B
Thu 10:51:16 PM 40.9612 -74.9868 256° West 463 533 26,500 1,731 Climbing FlightAware ADS-B
Thu 10:51:46 PM 40.9403 -75.0697 252° West 459 528 27,500 1,869 Climbing FlightAware ADS-B
Thu 10:52:17 PM 40.9195 -75.1491 251° West 456 525 28,400 1,869 Climbing FlightAware ADS-B
Thu 10:52:47 PM 40.9017 -75.2290 254° West 452 520 29,400 1,900 Climbing FlightAware ADS-B
Thu 10:53:17 PM 40.8854 -75.3087 255° West 448 516 30,300 1,900 Climbing FlightAware ADS-B
Thu 10:53:47 PM 40.8692 -75.3886 255° West 443 510 31,300 2,000 Climbing FlightAware ADS-B
Thu 10:54:02 PM 40.8634 -75.4278 259° West 441 507 31,800 2,077 Climbing FlightAware ADS-B
Thu 10:54:13 PM 40.8611 -75.4573 264° West 440 506 32,200 1,800 Climbing FlightAware ADS-B
Thu 10:54:32 PM 40.8612 -75.5078 270° West 440 506 32,700 1,714 Climbing FlightAware ADS-B
Thu 10:55:02 PM 40.8693 -75.5892 278° West 437 503 33,600 1,355 Climbing FlightAware ADS-B
Thu 10:55:34 PM 40.8780 -75.6718 278° West 430 495 34,100 484 Climbing FlightAware ADS-B
Thu 10:56:04 PM 40.8866 -75.7512 278° West 427 491 34,100 -100 Level FlightAware ADS-B
Thu 10:56:34 PM 40.8949 -75.8293 278° West 426 490 34,000  Descending FlightAware ADS-B
Thu 10:57:05 PM 40.9032 -75.9080 278° West 427 491 34,100 98 Climbing FlightAware ADS-B
Thu 10:57:35 PM 40.9115 -75.9870 278° West 429 494 34,100  Level FlightAware ADS-B
Thu 10:58:06 PM 40.9198 -76.0663 278° West 430 495 34,100  Level FlightAware ADS-B
Thu 10:58:42 PM 40.9298 -76.1615 278° West 431 496 34,100  Level FlightAware ADS-B
Thu 10:59:16 PM 40.9392 -76.2518 278° West 433 498 34,100  Level FlightAware ADS-B
Thu 10:59:47 PM 40.9475 -76.3324 278° West 434 499 34,100  Level FlightAware ADS-B
Thu 11:00:17 PM 40.9557 -76.4128 278° West 435 501 34,100 -98 Level FlightAware ADS-B
Thu 11:00:48 PM 40.9638 -76.4934 278° West 436 502 34,000  Descending FlightAware ADS-B
Thu 11:01:18 PM 40.9720 -76.5741 278° West 437 503 34,100 95 Climbing FlightAware ADS-B
Thu 11:01:51 PM 40.9809 -76.6625 278° West 438 504 34,100  Level FlightAware ADS-B
Thu 11:02:21 PM 40.9889 -76.7426 278° West 439 505 34,100  Level FlightAware ADS-B
Thu 11:02:57 PM 40.9984 -76.8377 278° West 439 505 34,100  Level FlightAware ADS-B
Thu 11:03:34 PM 41.0081 -76.9361 277° West 440 506 34,100  Level FlightAware ADS-B
Thu 11:04:05 PM 41.0162 -77.0183 277° West 440 506 34,100  Level FlightAware ADS-B
Thu 11:04:35 PM 41.0240 -77.0996 277° West 438 504 34,100  Level FlightAware ADS-B
Thu 11:05:06 PM 41.0319 -77.1819 277° West 438 504 34,100  Level FlightAware ADS-B
Thu 11:05:39 PM 41.0403 -77.2701 277° West 439 505 34,100  Level FlightAware ADS-B
Thu 11:06:11 PM 41.0487 -77.3580 277° West 439 505 34,100  Level FlightAware ADS-B
Thu 11:06:41 PM 41.0562 -77.4378 277° West 440 506 34,100  Level FlightAware ADS-B
Thu 11:07:12 PM 41.0638 -77.5193 277° West 440 506 34,100  Level FlightAware ADS-B
Thu 11:07:49 PM 41.0729 -77.6185 277° West 440 506 34,100  Level FlightAware ADS-B
Thu 11:08:31 PM 41.0820 -77.7210 277° West 439 505 34,100  Level FlightAware ADS-B
Thu 11:08:38 PM 41.0849 -77.7493 278° West 439 505 34,100  Level FlightAware ADS-B
Thu 11:09:08 PM 41.0924 -77.8318 277° West 439 505 34,100  Level FlightAware ADS-B
Thu 11:09:41 PM 41.0990 -77.9010 277° West 439 505 34,100  Level FlightAware ADS-B
Thu 11:10:16 PM 41.1080 -78.0030 277° West 439 505 34,100  Level FlightAware ADS-B
Thu 11:10:46 PM 41.1150 -78.0830 277° West 439 505 34,100  Level FlightAware ADS-B
Thu 11:11:21 PM 41.1230 -78.1760 277° West 439 505 34,100  Level FlightAware ADS-B
Thu 11:12:01 PM 41.1320 -78.2860 276° West 440 506 34,100  Level FlightAware ADS-B
Thu 11:12:31 PM 41.1390 -78.3650 277° West 440 506 34,100  Level FlightAware ADS-B
Thu 11:13:11 PM 41.1480 -78.4730 276° West 440 506 34,100  Level FlightAware ADS-B
Thu 11:13:51 PM 41.1570 -78.5830 276° West 439 505 34,100 -80 Level FlightAware ADS-B
Thu 11:14:26 PM 41.1650 -78.6770 276° West 439 505 34,000  Descending FlightAware ADS-B
Thu 11:15:01 PM 41.1730 -78.7710 276° West 438 504 34,100 86 Climbing FlightAware ADS-B
Thu 11:15:36 PM 41.1800 -78.8640 276° West 438 504 34,100  Level FlightAware ADS-B
Thu 11:16:12 PM 41.1880 -78.9570 277° West 439 505 34,100  Level FlightAware ADS-B
Thu 11:16:46 PM 41.1950 -79.0520 276° West 438 504 34,100  Level FlightAware ADS-B
Thu 11:17:21 PM 41.2030 -79.1450 277° West 438 504 34,100  Level FlightAware ADS-B
Thu 11:17:56 PM 41.2100 -79.2360 276° West 438 504 34,100  Level FlightAware ADS-B
Thu 11:18:31 PM 41.2170 -79.3320 276° West 438 504 34,100  Level FlightAware ADS-B
Thu 11:19:06 PM 41.2240 -79.4260 276° West 438 504 34,100  Level FlightAware ADS-B
Thu 11:19:46 PM 41.2320 -79.5340 276° West 439 505 34,100  Level FlightAware ADS-B
Thu 11:20:21 PM 41.2390 -79.6280 276° West 438 504 34,100  Level FlightAware ADS-B
Thu 11:21:01 PM 41.2470 -79.7330 276° West 438 504 34,100  Level FlightAware ADS-B
Thu 11:21:31 PM 41.2530 -79.8180 275° West 438 504 34,100  Level FlightAware ADS-B
Thu 11:22:16 PM 41.2610 -79.9290 276° West 437 503 34,100 -71 Level FlightAware ADS-B
Thu 11:22:56 PM 41.2690 -80.0430 275° West 435 501 34,000  Descending FlightAware ADS-B
Thu 11:23:31 PM 41.2760 -80.1380 276° West 435 501 34,100 86 Climbing FlightAware ADS-B
Thu 11:24:06 PM 41.2830 -80.2310 276° West 434 499 34,100 -86 Level FlightAware ADS-B
Thu 11:24:41 PM 41.2890 -80.3250 275° West 435 501 34,000  Descending FlightAware ADS-B
Thu 11:25:17 PM 41.2950 -80.4150 275° West 435 501 34,100 86 Climbing FlightAware ADS-B
Thu 11:25:51 PM 41.3020 -80.5140 275° West 435 501 34,100  Level FlightAware ADS-B
Thu 11:26:26 PM 41.3080 -80.6040 275° West 435 501 34,100  Level FlightAware ADS-B
Thu 11:27:01 PM 41.3140 -80.6990 275° West 434 499 34,100 -86 Level FlightAware ADS-B
Thu 11:27:36 PM 41.3190 -80.7860 274° West 434 499 34,000  Descending FlightAware ADS-B
Thu 11:28:12 PM 41.3260 -80.8960 275° West 434 499 34,100 86 Climbing FlightAware ADS-B
Thu 11:28:46 PM 41.3320 -80.9880 275° West 434 499 34,100 -83 Level FlightAware ADS-B
Thu 11:29:24 PM 41.3380 -81.0890 275° West 434 499 34,000  Descending FlightAware ADS-B
Thu 11:29:56 PM 41.3430 -81.1760 274° West 434 499 34,100 88 Climbing FlightAware ADS-B
Thu 11:30:32 PM 41.3480 -81.2700 274° West 435 501 34,100  Level FlightAware ADS-B
Thu 11:31:10 PM 41.3540 -81.3720 275° West 436 502 34,100  Level FlightAware ADS-B
Thu 11:31:42 PM 41.3590 -81.4620 274° West 436 502 34,100  Level FlightAware ADS-B
Thu 11:32:18 PM 41.3650 -81.5570 275° West 437 503 34,100  Level FlightAware ADS-B
Thu 11:32:54 PM 41.3700 -81.6540 274° West 437 503 34,100  Level FlightAware ADS-B
Thu 11:33:29 PM 41.3750 -81.7480 274° West 436 502 34,100  Level FlightAware ADS-B
Thu 11:34:02 PM 41.3800 -81.8360 274° West 436 502 34,100  Level FlightAware ADS-B
Thu 11:34:38 PM 41.3850 -81.9320 274° West 436 502 34,100  Level FlightAware ADS-B
Thu 11:35:13 PM 41.3900 -82.0260 274° West 437 503 34,100  Level FlightAware ADS-B
Thu 11:35:46 PM 41.3950 -82.1150 274° West 436 502 34,100  Level FlightAware ADS-B
Thu 11:36:22 PM 41.4000 -82.2120 274° West 436 502 34,100  Level FlightAware ADS-B
Thu 11:36:59 PM 41.4050 -82.3120 274° West 434 499 34,100  Level FlightAware ADS-B
Thu 11:37:33 PM 41.4090 -82.4010 273° West 434 499 34,100  Level FlightAware ADS-B
Thu 11:38:09 PM 41.4140 -82.4980 274° West 434 499 34,100 -83 Level FlightAware ADS-B
Thu 11:38:45 PM 41.4190 -82.5970 274° West 434 499 34,000 -88 Descending FlightAware ADS-B
Thu 11:39:17 PM 41.4220 -82.6830 273° West 434 499 34,000 79 Level FlightAware ADS-B
Thu 11:40:01 PM 41.4280 -82.8000 274° West 434 499 34,100 79 Climbing FlightAware ADS-B
Thu 11:40:33 PM 41.4310 -82.8830 273° West 434 499 34,100  Level FlightAware ADS-B
Thu 11:41:09 PM 41.4360 -82.9810 274° West 435 501 34,100  Level FlightAware ADS-B
Thu 11:41:40 PM 41.4390 -83.0620 273° West 436 502 34,100  Level FlightAware ADS-B
Thu 11:42:15 PM 41.4430 -83.1590 273° West 437 503 34,100  Level FlightAware ADS-B
Thu 11:42:52 PM 41.4480 -83.2560 274° West 439 505 34,100  Level FlightAware ADS-B
Thu 11:43:29 PM 41.4520 -83.3600 273° West 440 506 34,100  Level FlightAware ADS-B
Thu 11:44:07 PM 41.4560 -83.4620 273° West 441 507 34,100  Level FlightAware ADS-B
Thu 11:44:39 PM 41.4600 -83.5520 273° West 441 507 34,100  Level FlightAware ADS-B
Thu 11:45:15 PM 41.4630 -83.6470 272° West 441 507 34,100  Level FlightAware ADS-B
Thu 11:45:51 PM 41.4670 -83.7460 273° West 440 506 34,100  Level FlightAware ADS-B
Thu 11:46:21 PM 41.4700 -83.8220 273° West 440 506 34,100  Level FlightAware ADS-B
Thu 11:47:00 PM 41.4740 -83.9310 273° West 439 505 34,100  Level FlightAware ADS-B
Thu 11:47:31 PM 41.4770 -84.0170 273° West 440 506 34,100  Level FlightAware ADS-B
Thu 11:48:09 PM 41.4800 -84.1140 272° West 439 505 34,100  Level FlightAware ADS-B
Thu 11:48:47 PM 41.4840 -84.2210 273° West 439 505 34,100  Level FlightAware ADS-B
Thu 11:49:13 PM 41.4860 -84.2920 272° West 439 505 34,100 -90 Level FlightAware ADS-B
Thu 11:49:54 PM 41.4900 -84.4050 273° West 438 504 34,000  Descending FlightAware ADS-B
Thu 11:50:30 PM 41.4930 -84.5020 272° West 438 504 34,100 83 Climbing FlightAware ADS-B
Thu 11:51:06 PM 41.4960 -84.6020 272° West 438 504 34,100  Level FlightAware ADS-B
Thu 11:51:38 PM 41.4990 -84.6880 273° West 438 504 34,100  Level FlightAware ADS-B
Thu 11:52:15 PM 41.5040 -84.7830 274° West 436 502 34,100 -81 Level FlightAware ADS-B
Thu 11:52:52 PM 41.5190 -84.8840 281° West 436 502 34,000 -83 Descending FlightAware ADS-B
Thu 11:53:27 PM 41.5350 -84.9750 283° West 436 502 34,000 90 Level FlightAware ADS-B
Thu 11:53:59 PM 41.5500 -85.0610 283° West 435 501 34,100 88 Climbing FlightAware ADS-B
Thu 11:54:35 PM 41.5660 -85.1540 283° West 435 501 34,100 -83 Level FlightAware ADS-B
Thu 11:55:11 PM 41.5830 -85.2470 284° West 436 502 34,000  Descending FlightAware ADS-B
Thu 11:55:45 PM 41.5990 -85.3390 283° West 437 503 34,100 88 Climbing FlightAware ADS-B
Thu 11:56:19 PM 41.6140 -85.4260 283° West 437 503 34,100  Level FlightAware ADS-B
Thu 11:56:55 PM 41.6320 -85.5240 284° West 438 504 34,100  Level FlightAware ADS-B
Thu 11:57:27 PM 41.6460 -85.6070 283° West 438 504 34,100  Level FlightAware ADS-B
Thu 11:58:03 PM 41.6620 -85.7000 283° West 438 504 34,100  Level FlightAware ADS-B
Thu 11:58:41 PM 41.6810 -85.8050 284° West 438 504 34,100 -80 Level FlightAware ADS-B
Thu 11:59:18 PM 41.6970 -85.9010 283° West 438 504 34,000 -86 Descending FlightAware ADS-B
Thu 11:59:51 PM 41.7120 -85.9900 283° West 439 505 34,000  Level FlightAware ADS-B
Fri 12:00:27 AM 41.7290 -86.0840 284° West 438 504 34,000 91 Level FlightAware ADS-B
Fri 12:00:57 AM 41.7420 -86.1650 282° West 439 505 34,100 91 Climbing FlightAware ADS-B
Fri 12:01:33 AM 41.7580 -86.2600 283° West 439 505 34,100  Level FlightAware ADS-B
Fri 12:02:07 AM 41.7730 -86.3500 283° West 439 505 34,100  Level FlightAware ADS-B
Fri 12:02:45 AM 41.7900 -86.4510 283° West 439 505 34,100  Level FlightAware ADS-B
Fri 12:03:21 AM 41.8060 -86.5480 283° West 439 505 34,100  Level FlightAware ADS-B
Fri 12:03:57 AM 41.8220 -86.6450 283° West 439 505 34,100  Level FlightAware ADS-B
Fri 12:04:29 AM 41.8350 -86.7280 282° West 438 504 34,100  Level FlightAware ADS-B
Fri 12:05:05 AM 41.8510 -86.8240 283° West 437 503 34,100  Level FlightAware ADS-B
Fri 12:05:41 AM 41.8670 -86.9210 283° West 436 502 34,100 -83 Level FlightAware ADS-B
Fri 12:06:17 AM 41.8820 -87.0150 282° West 436 502 34,000  Descending FlightAware ADS-B
Fri 12:06:49 AM 41.8960 -87.1020 282° West 436 502 34,100 -529 Climbing FlightAware ADS-B
Fri 12:07:25 AM 41.9110 -87.1980 282° West 437 503 33,400 -1,833 Descending FlightAware ADS-B
Fri 12:08:01 AM 41.9260 -87.2910 282° West 444 511 31,900 -2,667 Descending FlightAware ADS-B
Fri 12:08:37 AM 41.9420 -87.3910 282° West 452 520 30,200 -2,824 Descending FlightAware ADS-B
Fri 12:09:09 AM 41.9560 -87.4820 282° West 457 526 28,700 -3,000 Descending FlightAware ADS-B
Fri 12:09:47 AM 41.9720 -87.5870 282° West 464 534 26,700 -2,959 Descending FlightAware ADS-B
Fri 12:10:22 AM 41.9880 -87.6870 282° West 463 533 25,100 -2,471 Descending FlightAware ADS-B
Fri 12:10:55 AM 42.0020 -87.7800 281° West 457 526 23,900 -2,174 Descending FlightAware ADS-B
Fri 12:11:31 AM 42.0180 -87.8810 282° West 451 519 22,600 -2,083 Descending FlightAware ADS-B
Fri 12:12:07 AM 42.0330 -87.9800 282° West 444 511 21,400 -1,944 Descending FlightAware ADS-B
Fri 12:12:42 AM 42.0470 -88.0720 282° West 439 505 20,300 -1,941 Descending FlightAware ADS-B
Fri 12:13:15 AM 42.0600 -88.1620 281° West 434 499 19,200 -2,087 Descending FlightAware ADS-B
Fri 12:13:51 AM 42.0740 -88.2560 281° West 422 486 17,900 -2,500 Descending FlightAware ADS-B
Fri 12:14:27 AM 42.0880 -88.3510 281° West 413 475 16,200 -1,750 Descending FlightAware ADS-B
Fri 12:15:03 AM 42.1010 -88.4380 281° West 408 470 15,800 -353 Descending FlightAware ADS-B
Fri 12:15:35 AM 42.1130 -88.5210 281° West 409 471 15,800 -706 Level FlightAware ADS-B
Fri 12:16:11 AM 42.1260 -88.6110 281° West 399 459 15,000 -3,333 Descending FlightAware ADS-B
Fri 12:16:47 AM 42.1380 -88.6980 281° West 383 441 11,800 -3,618 Descending FlightAware ADS-B
Fri 12:17:19 AM 42.1480 -88.7650 281° West 330 380 10,900 -882 Descending FlightAware ADS-B
Fri 12:17:55 AM 42.1570 -88.8310 280° West 262 302 10,800 -91 Descending FlightAware ADS-B
Fri 12:18:25 AM 42.1620 -88.8750 279° West 235 270 10,800 -720 Level FlightAware ADS-B
Fri 12:18:45 AM 42.1550 -88.9020 251° West 229 264 10,200 -1,950 Descending FlightAware ADS-B
Fri 12:19:05 AM 42.1420 -88.9260 234° Southwest 234 269 9,500 -2,318 Descending FlightAware ADS-B
Fri 12:19:29 AM 42.1260 -88.9540 232° Southwest 243 280 8,500 -3,000 Descending FlightAware ADS-B
Fri 12:19:49 AM 42.1110 -88.9790 231° Southwest 262 302 7,300 -3,556 Descending FlightAware ADS-B
Fri 12:19:56 AM 42.1060 -88.9860 226° Southwest 268 308 6,900 -3,500 Descending FlightAware ADS-B
Fri 12:20:01 AM 42.1000 -88.9910 212° Southwest 272 313 6,600 -3,692 Descending FlightAware ADS-B
Fri 12:20:09 AM 42.0900 -88.9960 200° South 274 315 6,100 -3,000 Descending FlightAware ADS-B
Fri 12:20:29 AM 42.0660 -89.0030 192° South 275 316 5,200 -2,684 Descending FlightAware ADS-B
Fri 12:20:47 AM 42.0430 -89.0080 189° South 272 313 4,400 -2,550 Descending FlightAware ADS-B
Fri 12:21:09 AM 42.0190 -89.0150 192° South 269 310 3,500 -2,471 Descending FlightAware ADS-B
Fri 12:21:21 AM 42.0050 -89.0240 206° Southwest 261 300 3,000 -2,250 Descending FlightAware ADS-B
Fri 12:21:25 AM 42.0020 -89.0290 231° Southwest 256 295 2,900 -1,000 Descending FlightAware ADS-B
Fri 12:21:33 AM 41.9970 -89.0390 236° Southwest 245 282 2,800 -947 Descending FlightAware ADS-B
Fri 12:21:44 AM 41.9930 -89.0560 252° West 228 262 2,600 -1,111 Descending FlightAware ADS-B
Fri 12:22:00 AM 41.9930 -89.0800 270° West 212 244 2,300 -720 Descending FlightAware ADS-B
Fri 12:22:09 AM 41.9950 -89.0910 284° West 198 228 2,300  Level FlightAware ADS-B
Fri 12:22:17 AM 41.9990 -89.0980 308° West 186 214 2,300  Level FlightAware ADS-B
Fri 12:22:28 AM 42.0060 -89.1050 323° Northwest 179 206 2,300  Level FlightAware ADS-B
Fri 12:22:36 AM 42.0120 -89.1080 340° North 175 201 2,300  Level FlightAware ADS-B
Fri 12:22:48 AM 42.0210 -89.1100 351° North 164 189 2,300  Level FlightAware ADS-B
Fri 12:23:24 AM 42.0480 -89.1090 North 156 180 2,300  Level FlightAware ADS-B
Fri 12:23:44 AM 42.0620 -89.1070 North 152 175 2,300  Level FlightAware ADS-B
Fri 12:24:08 AM 42.0780 -89.1050 North 133 153 2,300 -136 Level FlightAware ADS-B
Fri 12:24:28 AM 42.0900 -89.1030 North 136 157 2,200 -571 Descending FlightAware ADS-B
Fri 12:24:50 AM 42.1040 -89.1020 North 126 145 1,900 -714 Descending FlightAware ADS-B
Fri 12:25:10 AM 42.1150 -89.1000 North 119 137 1,700 -462 Descending FlightAware ADS-B
Fri 12:25:29 AM 42.1260 -89.0990 North 119 137 1,600 -514 Descending FlightAware ADS-B
Fri 12:25:45 AM 42.1340 -89.0980 North 119 137 1,400 -649 Descending FlightAware ADS-B
Fri 12:26:06 AM 42.1460 -89.0960 North 120 138 1,200 -585 Descending FlightAware ADS-B
Fri 12:26:26 AM 42.1570 -89.0950 North 120 138 1,000 -600 Descending FlightAware ADS-B
Fri 12:26:46 AM 42.1680 -89.0930 North 121 139 800 -500 Descending FlightAware ADS-B
Fri 12:27:02 AM 42.1770 -89.0920 North 122 140 700 -240 Descending FlightAware ADS-B
Fri 12:27:36 AM 42.1930 -89.0900 North 122 140 600 -176 Descending FlightAware ADS-B

Login

Don't have an account? Register now (free) for customized features, flight alerts, and more!